Terminal Aerodrome Forecast
Issued by NWS

Home | Current Version | Previous Version | Text Only | Print | Product List | Glossary On
Versions: 1 2 3 4 5 6 7 8 9 10 11 12 13
648
FTPA31 PHFO 292338
TAFHJH
TAF
PHJH 292338Z 3000/3024 05014G24KT P6SM FEW025 SCT045
     FM300400 06007KT P6SM FEW025 SCT045
     FM302000 06014G24KT P6SM FEW025 SCT045
      AMD NOT SKED 3004/3016=

USA.gov is the U.S. government's official web portal to all federal, state and local government web resources and services.